ARC Gloria — 5KMT — position and weather

sailwx.info

Track history (hours):
 
Tides and Currents Weather Stations Pressure Air Temp Water Temp Dewpoint Dewpoint Depression Visibility Wind Speed Wind Dir Waves Ship Positions

ARC Gloria (Colombia)

Three-masted barque. Training ship of the Colombian National Armada.

Ship's website: http://www.armada.mil.co/

Last reported at 2019-Aug-24 11:54 UTC. Time now 2019-Aug-24 20:36 UTC.
Position N 51°03' E 001°26'.

Length 76 m; draft 4.6 m.

Type: Sailing vessel. MMSI: 730010001.

Date/timePositionNaut miles runAvg speedWind from/ knotsBaromVisibWave heightAir tempDewpointWater temp
2019-Aug-24 11:54N 51°03' E 001°26'4 9.9
2019-Aug-24 11:29N 51°06' E 001°31'5 9.7
2019-Aug-24 11:00N 51°09' E 001°37'5 9.0
2019-Aug-24 10:30N 51°12' E 001°42'4 8.5
2019-Aug-24 10:00N 51°15' E 001°47'4 8.6
2019-Aug-24 09:30N 51°19' E 001°50'4 8.3
2019-Aug-24 09:00N 51°23' E 001°53'4 7.9
2019-Aug-24 08:30N 51°26' E 001°56'4 7.6
2019-Aug-24 08:00N 51°29' E 002°00'4 7.2
2019-Aug-24 07:30N 51°32' E 002°04'3 5.3
2019-Aug-24 07:00N 51°34' E 002°07'3 4.8
2019-Aug-24 06:28N 51°36' E 002°10'7 5.7
2019-Aug-24 05:19N 51°41' E 002°16'12 6.7
2019-Aug-24 03:36N 51°50' E 002°28'11 7.2
2019-Aug-24 02:02N 51°58' E 002°40'0 7.3
2019-Aug-24 01:59N 51°58' E 002°41'4 7.9
2019-Aug-24 01:29N 52°01' E 002°46'5 6.9
2019-Aug-24 00:50N 52°02' E 002°53'4 8.0
2019-Aug-24 00:22N 52°02' E 002°59'4 8.1
2019-Aug-23 23:51N 52°03' E 003°06'3 8.1
2019-Aug-23 23:30N 52°03' E 003°10'13 7.9
2019-Aug-23 21:53N 52°04' E 003°31'3 7.6
2019-Aug-23 21:28N 52°04' E 003°36'4 7.4
2019-Aug-23 20:58N 52°04' E 003°42'3 7.2
2019-Aug-23 20:30N 52°04' E 003°48'4 7.0
2019-Aug-23 20:00N 52°04' E 003°53'3 6.7
2019-Aug-23 19:30N 52°03' E 003°59'4 9.1
2019-Aug-23 19:00N 52°05' E 004°05'3 5.8
2019-Aug-23 18:30N 52°06' E 004°09'3 5.3
2019-Aug-23 18:00N 52°07' E 004°13'2 4.1
2019-Aug-23 17:30N 52°06' E 004°16'0 0.6
2019-Aug-23 17:00N 52°06' E 004°16'0 0.0
2019-Aug-23 16:30N 52°06' E 004°16'0 0.0
2019-Aug-23 16:00N 52°06' E 004°16'0 0.0
2019-Aug-23 15:00N 52°06' E 004°16'0 0.0
2019-Aug-23 14:30N 52°06' E 004°16'0 0.0
2019-Aug-23 14:00N 52°06' E 004°16'  
2019-Aug-20 07:32N 52°06' E 004°16'0 0.0
2019-Aug-20 07:30N 52°06' E 004°16'0 0.6
2019-Aug-20 07:00N 52°06' E 004°16'2 3.7
2019-Aug-20 06:31N 52°08' E 004°14'2 4.0
2019-Aug-20 06:01N 52°07' E 004°11'2 4.0
2019-Aug-20 05:31N 52°07' E 004°08'2 4.1
2019-Aug-20 05:01N 52°07' E 004°04'2 4.6
2019-Aug-20 04:30N 52°07' E 004°01'2 4.9
2019-Aug-20 04:00N 52°05' E 003°58'1 1.4
2019-Aug-20 03:31N 52°04' E 003°58'1 1.7
2019-Aug-20 03:00N 52°05' E 003°59'0 0.7
2019-Aug-20 02:29N 52°05' E 003°59'0 0.6
2019-Aug-20 02:00N 52°04' E 003°58'0 0.3
2019-Aug-20 01:30N 52°04' E 003°58'0 0.0
2019-Aug-20 01:00N 52°04' E 003°58'0 0.3
2019-Aug-20 00:29N 52°04' E 003°58'1 1.1
2019-Aug-20 00:01N 52°05' E 003°59'1 2.2
2019-Aug-19 23:30N 52°06' E 004°00'1 1.9
2019-Aug-19 23:00N 52°06' E 004°02'1 2.2
2019-Aug-19 22:29N 52°06' E 004°03'1 2.8
2019-Aug-19 22:01N 52°06' E 004°06'1 1.4
2019-Aug-19 21:30N 52°07' E 004°06'2 1.5
2019-Aug-19 20:30N 52°08' E 004°08'1 1.1
2019-Aug-19 20:00N 52°08' E 004°09'1 1.9
2019-Aug-19 19:31N 52°08' E 004°10'1 1.9
2019-Aug-19 19:01N 52°09' E 004°12'1 1.4
2019-Aug-19 18:31N 52°09' E 004°13'1 1.2
2019-Aug-19 18:00N 52°10' E 004°13'1 1.1
2019-Aug-19 17:31N 52°10' E 004°14'1 1.1
2019-Aug-19 17:01N 52°10' E 004°15'1 1.0
2019-Aug-19 16:29N 52°11' E 004°15'1 1.1
2019-Aug-19 16:01N 52°10' E 004°15'0 0.0
2019-Aug-19 15:31N 52°10' E 004°15'0 0.0
2019-Aug-19 15:01N 52°10' E 004°15'0 0.0
2019-Aug-19 14:31N 52°10' E 004°15'0 0.0
2019-Aug-19 14:01N 52°10' E 004°15'0 0.0
2019-Aug-19 13:31N 52°10' E 004°15'0 0.0
2019-Aug-19 13:01N 52°10' E 004°15'0 0.0
2019-Aug-19 12:31N 52°10' E 004°15'0 0.1
2019-Aug-19 12:01N 52°10' E 004°15'0 0.0
2019-Aug-19 11:31N 52°10' E 004°15'0 0.0
2019-Aug-19 11:01N 52°10' E 004°15'0 0.0
2019-Aug-19 10:31N 52°10' E 004°15'0 0.0
2019-Aug-19 09:58N 52°10' E 004°15'0 0.1
2019-Aug-19 09:31N 52°10' E 004°15'0 0.1
2019-Aug-19 09:01N 52°10' E 004°15'0 0.0
2019-Aug-19 08:31N 52°10' E 004°15'0 0.0
2019-Aug-19 08:01N 52°10' E 004°15'0 0.0
2019-Aug-19 07:31N 52°10' E 004°15'0 0.0
2019-Aug-19 07:01N 52°10' E 004°15'0 0.0
2019-Aug-19 06:31N 52°10' E 004°15'0 0.0
2019-Aug-19 06:01N 52°10' E 004°15'0 0.0
2019-Aug-19 05:31N 52°10' E 004°15'1 1.2
2019-Aug-19 05:00N 52°11' E 004°16'0 0.3
2019-Aug-19 04:30N 52°11' E 004°16'0 0.2
2019-Aug-19 04:00N 52°11' E 004°15'0 0.4
2019-Aug-19 03:30N 52°10' E 004°15'0 0.4
2019-Aug-19 03:00N 52°10' E 004°15'0 0.4
2019-Aug-19 02:31N 52°10' E 004°15'0 0.3
2019-Aug-19 01:58N 52°10' E 004°15'0 0.0
2019-Aug-19 01:31N 52°10' E 004°15'0 0.0
2019-Aug-19 01:01N 52°10' E 004°15'0 0.0
2019-Aug-19 00:30N 52°10' E 004°15'0 0.0
2019-Aug-19 00:01N 52°10' E 004°15'0 0.0
2019-Aug-18 23:30N 52°10' E 004°15'0 0.0
2019-Aug-18 23:00N 52°10' E 004°15'0 0.1
2019-Aug-18 22:30N 52°10' E 004°15'0 0.0
2019-Aug-18 22:00N 52°10' E 004°15'0 0.0
2019-Aug-18 21:30N 52°10' E 004°15'0 0.2
2019-Aug-18 21:00N 52°10' E 004°15'0 0.2
2019-Aug-18 20:28N 52°10' E 004°15'0 0.3
2019-Aug-18 19:58N 52°10' E 004°15'0 0.0
2019-Aug-18 19:28N 52°10' E 004°15'0 0.0
2019-Aug-18 18:58N 52°10' E 004°15'0 0.0
2019-Aug-18 18:28N 52°10' E 004°15'0 0.0
2019-Aug-18 17:58N 52°10' E 004°15'0 0.0
2019-Aug-18 17:28N 52°10' E 004°15'0 0.0
2019-Aug-18 16:58N 52°10' E 004°15'0 0.0
2019-Aug-18 16:28N 52°10' E 004°15'0 0.0
2019-Aug-18 15:58N 52°10' E 004°15'0 0.0
2019-Aug-18 15:28N 52°10' E 004°15'0 0.0
2019-Aug-18 14:58N 52°10' E 004°15'0 0.0
2019-Aug-18 14:28N 52°10' E 004°15'0 0.0
2019-Aug-18 13:58N 52°10' E 004°15'0 0.0
2019-Aug-18 13:28N 52°10' E 004°15'0 0.0
2019-Aug-18 12:58N 52°10' E 004°15'0 0.1
2019-Aug-18 12:28N 52°10' E 004°15'0 0.1
2019-Aug-18 11:58N 52°10' E 004°15'0 0.0
2019-Aug-18 11:28N 52°10' E 004°15'0 0.1
2019-Aug-18 10:58N 52°10' E 004°15'0 0.1
2019-Aug-18 10:30N 52°10' E 004°15'0 0.0
2019-Aug-18 10:00N 52°10' E 004°15'0 0.0
2019-Aug-18 09:30N 52°10' E 004°15'0 0.1
2019-Aug-18 09:00N 52°10' E 004°15'0 0.1
2019-Aug-18 08:30N 52°10' E 004°15'0 0.0
2019-Aug-18 08:00N 52°10' E 004°15'0 0.0
2019-Aug-18 07:00N 52°10' E 004°15'0 0.0
2019-Aug-18 06:30N 52°10' E 004°15'0 0.0
2019-Aug-18 06:00N 52°10' E 004°15'0 0.0
2019-Aug-18 05:30N 52°10' E 004°15'0 0.0
2019-Aug-18 05:00N 52°10' E 004°15'0 0.0
2019-Aug-18 04:00N 52°10' E 004°15'0 0.0
2019-Aug-18 03:30N 52°10' E 004°15'0 0.0
2019-Aug-18 03:00N 52°10' E 004°15'0 0.0
2019-Aug-18 02:30N 52°10' E 004°15'0 0.0
2019-Aug-18 02:00N 52°10' E 004°15'0 0.0
2019-Aug-18 01:30N 52°10' E 004°15'0 0.0
2019-Aug-18 01:00N 52°10' E 004°15'0 0.0
2019-Aug-18 00:30N 52°10' E 004°15'0 0.1
2019-Aug-18 00:00N 52°10' E 004°15'0 0.1
2019-Aug-17 23:30N 52°10' E 004°15'0 0.0
2019-Aug-17 23:00N 52°10' E 004°15'0 0.1
2019-Aug-17 22:30N 52°10' E 004°15'0 0.2
2019-Aug-17 22:00N 52°10' E 004°15'0 0.1
2019-Aug-17 21:30N 52°10' E 004°15'0 0.1
2019-Aug-17 21:00N 52°10' E 004°15'0 0.0
2019-Aug-17 20:30N 52°10' E 004°15'0 0.0
2019-Aug-17 20:00N 52°10' E 004°15'0 0.0
2019-Aug-17 19:30N 52°10' E 004°15'0 0.0
2019-Aug-17 19:00N 52°10' E 004°15'0 0.0
2019-Aug-17 18:30N 52°10' E 004°15'0 0.0
2019-Aug-17 17:30N 52°10' E 004°15'0 0.0
2019-Aug-17 17:00N 52°10' E 004°15'0 0.0
2019-Aug-17 16:30N 52°10' E 004°15'0 0.0
2019-Aug-17 16:00N 52°10' E 004°15'0 0.0
2019-Aug-17 15:30N 52°10' E 004°15'0 0.0
2019-Aug-17 15:00N 52°10' E 004°15'0 0.4
2019-Aug-17 14:30N 52°10' E 004°14'0 0.0
2019-Aug-17 14:00N 52°10' E 004°14'0 0.0
2019-Aug-17 13:30N 52°10' E 004°14'0 0.0
2019-Aug-17 13:00N 52°10' E 004°14'0 0.0
2019-Aug-17 12:30N 52°10' E 004°14'0 0.0
2019-Aug-17 12:00N 52°10' E 004°14'0 0.0
2019-Aug-17 11:30N 52°10' E 004°14'0 0.0
2019-Aug-17 11:00N 52°10' E 004°14'0 0.0
2019-Aug-17 10:30N 52°10' E 004°14'2 3.0
2019-Aug-17 10:00N 52°11' E 004°12'3 6.0
2019-Aug-17 09:30N 52°14' E 004°10'3 6.0
2019-Aug-17 09:00N 52°16' E 004°09'3 5.4
2019-Aug-17 08:30N 52°19' E 004°07'3 5.3
2019-Aug-17 08:00N 52°21' E 004°06'3 6.4
2019-Aug-17 07:30N 52°23' E 004°01'3 6.5
2019-Aug-17 07:00N 52°24' E 003°56'3 6.1
2019-Aug-17 06:30N 52°25' E 003°52'2 3.5
2019-Aug-17 06:00N 52°27' E 003°52'2 4.0
2019-Aug-17 05:28N 52°29' E 003°52'1 2.7
2019-Aug-17 05:00N 52°31' E 003°53'2 2.9
2019-Aug-17 04:29N 52°32' E 003°53'2 2.8
2019-Aug-17 03:51N 52°34' E 003°54'  
Track history (hours):
 
Tides and Currents Weather Stations Pressure Air Temp Water Temp Dewpoint Dewpoint Depression Visibility Wind Speed Wind Dir Waves Ship Positions

ARC Gloria (Colombia)

Three-masted barque. Training ship of the Colombian National Armada.

Ship's website: http://www.armada.mil.co/

Last reported at 2019-Aug-24 11:54 UTC. Time now 2019-Aug-24 20:36 UTC.
Position N 51°03' E 001°26'.

Length 76 m; draft 4.6 m.

Type: Sailing vessel. MMSI: 730010001.

Date/timePositionNaut miles runAvg speedWind from/ knotsBaromVisibWave heightAir tempDewpointWater temp
2019-Aug-24 11:54N 51°03' E 001°26'4 9.9
2019-Aug-24 11:29N 51°06' E 001°31'5 9.7
2019-Aug-24 11:00N 51°09' E 001°37'5 9.0
2019-Aug-24 10:30N 51°12' E 001°42'4 8.5
2019-Aug-24 10:00N 51°15' E 001°47'4 8.6
2019-Aug-24 09:30N 51°19' E 001°50'4 8.3
2019-Aug-24 09:00N 51°23' E 001°53'4 7.9
2019-Aug-24 08:30N 51°26' E 001°56'4 7.6
2019-Aug-24 08:00N 51°29' E 002°00'4 7.2
2019-Aug-24 07:30N 51°32' E 002°04'3 5.3
2019-Aug-24 07:00N 51°34' E 002°07'3 4.8
2019-Aug-24 06:28N 51°36' E 002°10'7 5.7
2019-Aug-24 05:19N 51°41' E 002°16'12 6.7
2019-Aug-24 03:36N 51°50' E 002°28'11 7.2
2019-Aug-24 02:02N 51°58' E 002°40'0 7.3
2019-Aug-24 01:59N 51°58' E 002°41'4 7.9
2019-Aug-24 01:29N 52°01' E 002°46'5 6.9
2019-Aug-24 00:50N 52°02' E 002°53'4 8.0
2019-Aug-24 00:22N 52°02' E 002°59'4 8.1
2019-Aug-23 23:51N 52°03' E 003°06'3 8.1
2019-Aug-23 23:30N 52°03' E 003°10'13 7.9
2019-Aug-23 21:53N 52°04' E 003°31'3 7.6
2019-Aug-23 21:28N 52°04' E 003°36'4 7.4
2019-Aug-23 20:58N 52°04' E 003°42'3 7.2
2019-Aug-23 20:30N 52°04' E 003°48'4 7.0
2019-Aug-23 20:00N 52°04' E 003°53'3 6.7
2019-Aug-23 19:30N 52°03' E 003°59'4 9.1
2019-Aug-23 19:00N 52°05' E 004°05'3 5.8
2019-Aug-23 18:30N 52°06' E 004°09'3 5.3
2019-Aug-23 18:00N 52°07' E 004°13'2 4.1
2019-Aug-23 17:30N 52°06' E 004°16'0 0.6
2019-Aug-23 17:00N 52°06' E 004°16'0 0.0
2019-Aug-23 16:30N 52°06' E 004°16'0 0.0
2019-Aug-23 16:00N 52°06' E 004°16'0 0.0
2019-Aug-23 15:00N 52°06' E 004°16'0 0.0
2019-Aug-23 14:30N 52°06' E 004°16'0 0.0
2019-Aug-23 14:00N 52°06' E 004°16'  
2019-Aug-20 07:32N 52°06' E 004°16'0 0.0
2019-Aug-20 07:30N 52°06' E 004°16'0 0.6
2019-Aug-20 07:00N 52°06' E 004°16'2 3.7
2019-Aug-20 06:31N 52°08' E 004°14'2 4.0
2019-Aug-20 06:01N 52°07' E 004°11'2 4.0
2019-Aug-20 05:31N 52°07' E 004°08'2 4.1
2019-Aug-20 05:01N 52°07' E 004°04'2 4.6
2019-Aug-20 04:30N 52°07' E 004°01'2 4.9
2019-Aug-20 04:00N 52°05' E 003°58'1 1.4
2019-Aug-20 03:31N 52°04' E 003°58'1 1.7
2019-Aug-20 03:00N 52°05' E 003°59'0 0.7
2019-Aug-20 02:29N 52°05' E 003°59'0 0.6
2019-Aug-20 02:00N 52°04' E 003°58'0 0.3
2019-Aug-20 01:30N 52°04' E 003°58'0 0.0
2019-Aug-20 01:00N 52°04' E 003°58'0 0.3
2019-Aug-20 00:29N 52°04' E 003°58'1 1.1
2019-Aug-20 00:01N 52°05' E 003°59'1 2.2
2019-Aug-19 23:30N 52°06' E 004°00'1 1.9
2019-Aug-19 23:00N 52°06' E 004°02'1 2.2
2019-Aug-19 22:29N 52°06' E 004°03'1 2.8
2019-Aug-19 22:01N 52°06' E 004°06'1 1.4
2019-Aug-19 21:30N 52°07' E 004°06'2 1.5
2019-Aug-19 20:30N 52°08' E 004°08'1 1.1
2019-Aug-19 20:00N 52°08' E 004°09'1 1.9
2019-Aug-19 19:31N 52°08' E 004°10'1 1.9
2019-Aug-19 19:01N 52°09' E 004°12'1 1.4
2019-Aug-19 18:31N 52°09' E 004°13'1 1.2
2019-Aug-19 18:00N 52°10' E 004°13'1 1.1
2019-Aug-19 17:31N 52°10' E 004°14'1 1.1
2019-Aug-19 17:01N 52°10' E 004°15'1 1.0
2019-Aug-19 16:29N 52°11' E 004°15'1 1.1
2019-Aug-19 16:01N 52°10' E 004°15'0 0.0
2019-Aug-19 15:31N 52°10' E 004°15'0 0.0
2019-Aug-19 15:01N 52°10' E 004°15'0 0.0
2019-Aug-19 14:31N 52°10' E 004°15'0 0.0
2019-Aug-19 14:01N 52°10' E 004°15'0 0.0
2019-Aug-19 13:31N 52°10' E 004°15'0 0.0
2019-Aug-19 13:01N 52°10' E 004°15'0 0.0
2019-Aug-19 12:31N 52°10' E 004°15'0 0.1
2019-Aug-19 12:01N 52°10' E 004°15'0 0.0
2019-Aug-19 11:31N 52°10' E 004°15'0 0.0
2019-Aug-19 11:01N 52°10' E 004°15'0 0.0
2019-Aug-19 10:31N 52°10' E 004°15'0 0.0
2019-Aug-19 09:58N 52°10' E 004°15'0 0.1
2019-Aug-19 09:31N 52°10' E 004°15'0 0.1
2019-Aug-19 09:01N 52°10' E 004°15'0 0.0
2019-Aug-19 08:31N 52°10' E 004°15'0 0.0
2019-Aug-19 08:01N 52°10' E 004°15'0 0.0
2019-Aug-19 07:31N 52°10' E 004°15'0 0.0
2019-Aug-19 07:01N 52°10' E 004°15'0 0.0
2019-Aug-19 06:31N 52°10' E 004°15'0 0.0
2019-Aug-19 06:01N 52°10' E 004°15'0 0.0
2019-Aug-19 05:31N 52°10' E 004°15'1 1.2
2019-Aug-19 05:00N 52°11' E 004°16'0 0.3
2019-Aug-19 04:30N 52°11' E 004°16'0 0.2
2019-Aug-19 04:00N 52°11' E 004°15'0 0.4
2019-Aug-19 03:30N 52°10' E 004°15'0 0.4
2019-Aug-19 03:00N 52°10' E 004°15'0 0.4
2019-Aug-19 02:31N 52°10' E 004°15'0 0.3
2019-Aug-19 01:58N 52°10' E 004°15'0 0.0
2019-Aug-19 01:31N 52°10' E 004°15'0 0.0
2019-Aug-19 01:01N 52°10' E 004°15'0 0.0
2019-Aug-19 00:30N 52°10' E 004°15'0 0.0
2019-Aug-19 00:01N 52°10' E 004°15'0 0.0
2019-Aug-18 23:30N 52°10' E 004°15'0 0.0
2019-Aug-18 23:00N 52°10' E 004°15'0 0.1
2019-Aug-18 22:30N 52°10' E 004°15'0 0.0
2019-Aug-18 22:00N 52°10' E 004°15'0 0.0
2019-Aug-18 21:30N 52°10' E 004°15'0 0.2
2019-Aug-18 21:00N 52°10' E 004°15'0 0.2
2019-Aug-18 20:28N 52°10' E 004°15'0 0.3
2019-Aug-18 19:58N 52°10' E 004°15'0 0.0
2019-Aug-18 19:28N 52°10' E 004°15'0 0.0
2019-Aug-18 18:58N 52°10' E 004°15'0 0.0
2019-Aug-18 18:28N 52°10' E 004°15'0 0.0
2019-Aug-18 17:58N 52°10' E 004°15'0 0.0
2019-Aug-18 17:28N 52°10' E 004°15'0 0.0
2019-Aug-18 16:58N 52°10' E 004°15'0 0.0
2019-Aug-18 16:28N 52°10' E 004°15'0 0.0
2019-Aug-18 15:58N 52°10' E 004°15'0 0.0
2019-Aug-18 15:28N 52°10' E 004°15'0 0.0
2019-Aug-18 14:58N 52°10' E 004°15'0 0.0
2019-Aug-18 14:28N 52°10' E 004°15'0 0.0
2019-Aug-18 13:58N 52°10' E 004°15'0 0.0
2019-Aug-18 13:28N 52°10' E 004°15'0 0.0
2019-Aug-18 12:58N 52°10' E 004°15'0 0.1
2019-Aug-18 12:28N 52°10' E 004°15'0 0.1
2019-Aug-18 11:58N 52°10' E 004°15'0 0.0
2019-Aug-18 11:28N 52°10' E 004°15'0 0.1
2019-Aug-18 10:58N 52°10' E 004°15'0 0.1
2019-Aug-18 10:30N 52°10' E 004°15'0 0.0
2019-Aug-18 10:00N 52°10' E 004°15'0 0.0
2019-Aug-18 09:30N 52°10' E 004°15'0 0.1
2019-Aug-18 09:00N 52°10' E 004°15'0 0.1
2019-Aug-18 08:30N 52°10' E 004°15'0 0.0
2019-Aug-18 08:00N 52°10' E 004°15'0 0.0
2019-Aug-18 07:00N 52°10' E 004°15'0 0.0
2019-Aug-18 06:30N 52°10' E 004°15'0 0.0
2019-Aug-18 06:00N 52°10' E 004°15'0 0.0
2019-Aug-18 05:30N 52°10' E 004°15'0 0.0
2019-Aug-18 05:00N 52°10' E 004°15'0 0.0
2019-Aug-18 04:00N 52°10' E 004°15'0 0.0
2019-Aug-18 03:30N 52°10' E 004°15'0 0.0
2019-Aug-18 03:00N 52°10' E 004°15'0 0.0
2019-Aug-18 02:30N 52°10' E 004°15'0 0.0
2019-Aug-18 02:00N 52°10' E 004°15'0 0.0
2019-Aug-18 01:30N 52°10' E 004°15'0 0.0
2019-Aug-18 01:00N 52°10' E 004°15'0 0.0
2019-Aug-18 00:30N 52°10' E 004°15'0 0.1
2019-Aug-18 00:00N 52°10' E 004°15'0 0.1
2019-Aug-17 23:30N 52°10' E 004°15'0 0.0
2019-Aug-17 23:00N 52°10' E 004°15'0 0.1
2019-Aug-17 22:30N 52°10' E 004°15'0 0.2
2019-Aug-17 22:00N 52°10' E 004°15'0 0.1
2019-Aug-17 21:30N 52°10' E 004°15'0 0.1
2019-Aug-17 21:00N 52°10' E 004°15'0 0.0
2019-Aug-17 20:30N 52°10' E 004°15'0 0.0
2019-Aug-17 20:00N 52°10' E 004°15'0 0.0
2019-Aug-17 19:30N 52°10' E 004°15'0 0.0
2019-Aug-17 19:00N 52°10' E 004°15'0 0.0
2019-Aug-17 18:30N 52°10' E 004°15'0 0.0
2019-Aug-17 17:30N 52°10' E 004°15'0 0.0
2019-Aug-17 17:00N 52°10' E 004°15'0 0.0
2019-Aug-17 16:30N 52°10' E 004°15'0 0.0
2019-Aug-17 16:00N 52°10' E 004°15'0 0.0
2019-Aug-17 15:30N 52°10' E 004°15'0 0.0
2019-Aug-17 15:00N 52°10' E 004°15'0 0.4
2019-Aug-17 14:30N 52°10' E 004°14'0 0.0
2019-Aug-17 14:00N 52°10' E 004°14'0 0.0
2019-Aug-17 13:30N 52°10' E 004°14'0 0.0
2019-Aug-17 13:00N 52°10' E 004°14'0 0.0
2019-Aug-17 12:30N 52°10' E 004°14'0 0.0
2019-Aug-17 12:00N 52°10' E 004°14'0 0.0
2019-Aug-17 11:30N 52°10' E 004°14'0 0.0
2019-Aug-17 11:00N 52°10' E 004°14'0 0.0
2019-Aug-17 10:30N 52°10' E 004°14'2 3.0
2019-Aug-17 10:00N 52°11' E 004°12'3 6.0
2019-Aug-17 09:30N 52°14' E 004°10'3 6.0
2019-Aug-17 09:00N 52°16' E 004°09'3 5.4
2019-Aug-17 08:30N 52°19' E 004°07'3 5.3
2019-Aug-17 08:00N 52°21' E 004°06'3 6.4
2019-Aug-17 07:30N 52°23' E 004°01'3 6.5
2019-Aug-17 07:00N 52°24' E 003°56'3 6.1
2019-Aug-17 06:30N 52°25' E 003°52'2 3.5
2019-Aug-17 06:00N 52°27' E 003°52'2 4.0
2019-Aug-17 05:28N 52°29' E 003°52'1 2.7
2019-Aug-17 05:00N 52°31' E 003°53'2 2.9
2019-Aug-17 04:29N 52°32' E 003°53'2 2.8
2019-Aug-17 03:51N 52°34' E 003°54'  

Dump ship's entire track history